Time;durP1;ratioP1;P1;durP2;ratioP2;P2;SDS_P1;SDS_P2;PMS_P1;PMS_P2;Temp;Humidity;BMP_temperature;BMP_pressure;BME280_temperature;BME280_humidity;BME280_pressure;Samples;Min_cycle;Max_cycle;Signal;HPM_P1;HPM_P2
2023/12/09 00:01:10;;;;;;;12.50;2.00;;;8.90;99.90;;;;;;5048086;28;20181;-77
2023/12/09 00:03:36;;;;;;;11.50;1.70;;;9.10;99.90;;;;;;5049279;28;20554;-77
2023/12/09 00:06:02;;;;;;;13.00;2.27;;;9.40;99.90;;;;;;5046903;28;20250;-76
2023/12/09 00:08:27;;;;;;;13.53;2.13;;;9.30;99.90;;;;;;5047479;28;20181;-76
2023/12/09 00:10:53;;;;;;;12.43;1.87;;;9.20;99.90;;;;;;5046423;28;20220;-76
2023/12/09 00:13:19;;;;;;;11.57;1.67;;;9.40;99.90;;;;;;5032841;28;20185;-77
2023/12/09 00:15:44;;;;;;;14.70;1.60;;;9.80;99.90;;;;;;5045912;28;20252;-76
2023/12/09 00:18:10;;;;;;;7.53;1.63;;;9.50;99.90;;;;;;5045310;28;20777;-76
2023/12/09 00:20:36;;;;;;;9.03;1.83;;;9.30;99.90;;;;;;5045885;28;20170;-75
2023/12/09 00:23:02;;;;;;;11.40;1.60;;;9.60;99.90;;;;;;5050359;28;20522;-76
2023/12/09 00:25:27;;;;;;;11.17;1.47;;;9.50;99.90;;;;;;5050450;28;20215;-77
2023/12/09 00:27:53;;;;;;;13.80;1.60;;;;;;;;;;5039299;28;20173;-76
2023/12/09 00:30:19;;;;;;;15.33;1.93;;;9.40;99.90;;;;;;5049406;28;20184;-76
2023/12/09 00:32:45;;;;;;;7.93;1.17;;;9.40;99.90;;;;;;5050263;28;20173;-76
2023/12/09 00:35:11;;;;;;;13.43;1.57;;;9.30;99.90;;;;;;5060409;28;20177;-75
2023/12/09 00:37:37;;;;;;;9.80;1.60;;;;;;;;;;5061255;28;20216;-77
2023/12/09 00:40:03;;;;;;;9.50;1.60;;;9.20;99.90;;;;;;5050053;28;20177;-77
2023/12/09 00:42:28;;;;;;;9.03;1.20;;;9.40;99.90;;;;;;5049242;28;20250;-77
2023/12/09 00:44:54;;;;;;;10.60;1.57;;;9.40;99.90;;;;;;5056354;28;20609;-77
2023/12/09 00:47:20;;;;;;;9.53;1.50;;;9.40;99.90;;;;;;5050713;28;20177;-76
2023/12/09 00:49:46;;;;;;;8.00;1.50;;;;;;;;;;5050029;28;20181;-77
2023/12/09 00:52:11;;;;;;;13.43;2.30;;;9.30;99.90;;;;;;5048727;28;20306;-77
2023/12/09 00:54:37;;;;;;;9.40;1.40;;;9.20;99.90;;;;;;5047720;28;20286;-77
2023/12/09 00:57:03;;;;;;;11.80;1.57;;;9.20;99.90;;;;;;5028182;28;20644;-77
2023/12/09 00:59:28;;;;;;;9.97;1.57;;;9.00;99.90;;;;;;5042541;28;20649;-78
2023/12/09 01:01:54;;;;;;;6.37;0.97;;;9.10;99.90;;;;;;5049452;28;20258;-77
2023/12/09 01:04:21;;;;;;;10.37;1.80;;;8.80;99.90;;;;;;5044854;28;20181;-78
2023/12/09 01:06:46;;;;;;;7.43;1.37;;;9.20;99.90;;;;;;5046193;28;20181;-76
2023/12/09 01:09:15;;;;;;;10.90;1.53;;;;;;;;;;5047874;28;20257;-77
2023/12/09 01:11:41;;;;;;;12.87;1.47;;;10.90;99.90;;;;;;5045255;28;20197;-75
2023/12/09 01:14:06;;;;;;;11.07;1.50;;;9.10;99.90;;;;;;5044638;28;20220;-77
2023/12/09 01:16:33;;;;;;;7.43;1.43;;;;;;;;;;5049401;28;20185;-76
2023/12/09 01:18:58;;;;;;;5.27;1.00;;;9.10;99.90;;;;;;5047332;28;20217;-78
2023/12/09 01:21:24;;;;;;;11.20;2.20;;;9.00;99.90;;;;;;5050035;28;20481;-78
2023/12/09 01:23:49;;;;;;;10.50;1.10;;;9.00;99.90;;;;;;5048348;28;20177;-78
2023/12/09 01:26:15;;;;;;;4.80;0.70;;;9.10;99.90;;;;;;5048118;28;20256;-78
2023/12/09 01:28:41;;;;;;;5.47;0.93;;;9.00;99.90;;;;;;5045632;28;20181;-78
2023/12/09 01:31:06;;;;;;;6.53;0.83;;;9.10;99.90;;;;;;5045191;28;20182;-79
2023/12/09 01:33:32;;;;;;;6.33;1.40;;;;;;;;;;5049073;28;20173;-77
2023/12/09 01:35:58;;;;;;;9.23;1.17;;;9.20;99.90;;;;;;5044477;28;20645;-78
2023/12/09 01:38:24;;;;;;;9.07;1.53;;;9.20;99.90;;;;;;5028321;28;20216;-78
2023/12/09 01:40:54;;;;;;;8.90;1.40;;;9.00;99.90;;;;;;5045495;28;20185;-78
2023/12/09 01:43:19;;;;;;;3.97;0.80;;;9.10;99.90;;;;;;5048724;28;20224;-79
2023/12/09 01:45:46;;;;;;;8.47;1.37;;;8.90;99.90;;;;;;5044635;28;20184;-78
2023/12/09 01:48:12;;;;;;;5.07;1.30;;;9.10;99.90;;;;;;5046020;28;20177;-78
2023/12/09 01:50:38;;;;;;;9.47;1.53;;;9.00;99.90;;;;;;5047226;28;20652;-79
2023/12/09 01:53:05;;;;;;;6.13;1.20;;;9.00;99.90;;;;;;5046404;28;20268;-78
2023/12/09 01:55:31;;;;;;;5.33;1.13;;;9.10;99.90;;;;;;5044774;28;20193;-78
2023/12/09 01:57:57;;;;;;;4.97;1.10;;;8.90;99.90;;;;;;5024782;28;20221;-77
2023/12/09 02:00:23;;;;;;;4.87;1.10;;;9.10;99.90;;;;;;5048398;28;20583;-77
2023/12/09 02:02:48;;;;;;;4.50;1.00;;;9.10;99.90;;;;;;5044952;28;20189;-77
2023/12/09 02:05:14;;;;;;;8.03;1.17;;;8.80;99.90;;;;;;5045850;28;20181;-76
2023/12/09 02:07:40;;;;;;;6.73;1.00;;;9.00;99.90;;;;;;5044441;28;20613;-76
2023/12/09 02:10:06;;;;;;;3.37;0.70;;;9.10;99.90;;;;;;5030909;28;20556;-76
2023/12/09 02:12:49;;;;;;;5.83;1.00;;;8.80;99.90;;;;;;5043980;28;20182;-76
2023/12/09 02:15:39;;;;;;;3.30;0.53;;;9.00;99.90;;;;;;5046330;28;20181;-76
2023/12/09 02:18:06;;;;;;;2.70;0.70;;;8.90;99.90;;;;;;5042533;28;20205;-76
2023/12/09 02:20:33;;;;;;;3.27;0.67;;;9.20;99.90;;;;;;5047855;28;20219;-76
2023/12/09 02:23:11;;;;;;;0.87;0.30;;;9.20;99.90;;;;;;5045138;28;20185;-76
2023/12/09 02:25:38;;;;;;;2.83;0.50;;;9.20;99.90;;;;;;5045603;28;20899;-75
2023/12/09 02:28:13;;;;;;;2.00;0.40;;;9.20;99.90;;;;;;5045948;28;20182;-75
2023/12/09 02:31:15;;;;;;;2.33;0.57;;;9.00;99.90;;;;;;5051526;28;20191;-76
2023/12/09 02:33:43;;;;;;;2.70;0.40;;;9.20;99.90;;;;;;5045219;28;20195;-76
2023/12/09 02:36:12;;;;;;;4.27;0.50;;;9.20;99.90;;;;;;5047674;28;20305;-76
2023/12/09 02:38:40;;;;;;;0.50;0.10;;;9.10;99.90;;;;;;5052484;28;20221;-76
2023/12/09 02:41:09;;;;;;;2.27;0.30;;;9.40;99.90;;;;;;5047707;28;20165;-75
2023/12/09 02:43:36;;;;;;;4.63;0.40;;;9.20;99.90;;;;;;5044322;28;20225;-75
2023/12/09 02:46:02;;;;;;;1.87;0.33;;;9.10;99.90;;;;;;5048540;28;20177;-76
2023/12/09 02:48:27;;;;;;;1.30;0.30;;;9.40;99.90;;;;;;5051295;28;20725;-75
2023/12/09 02:50:53;;;;;;;4.20;0.60;;;9.10;99.90;;;;;;5047338;28;20313;-76
2023/12/09 02:53:19;;;;;;;3.97;0.50;;;9.30;99.90;;;;;;5045405;28;20265;-75
2023/12/09 02:55:44;;;;;;;1.93;0.40;;;9.50;99.90;;;;;;5045337;28;20181;-80
2023/12/09 02:58:10;;;;;;;3.03;0.70;;;9.30;99.90;;;;;;5048062;28;20224;-78
2023/12/09 03:00:36;;;;;;;3.70;0.50;;;9.30;99.90;;;;;;5051051;28;20639;-78
2023/12/09 03:03:01;;;;;;;3.23;0.70;;;9.30;99.90;;;;;;5062420;28;20182;-78
2023/12/09 03:05:27;;;;;;;3.73;0.67;;;9.80;99.90;;;;;;5070837;28;20201;-79
2023/12/09 03:07:53;;;;;;;4.10;0.83;;;9.40;99.90;;;;;;5050326;28;20177;-78
2023/12/09 03:10:18;;;;;;;3.70;0.70;;;9.50;99.90;;;;;;5050543;28;20178;-78
2023/12/09 03:12:44;;;;;;;4.70;1.17;;;9.40;99.90;;;;;;5049111;28;20219;-78
2023/12/09 03:15:10;;;;;;;2.20;0.57;;;10.40;99.90;;;;;;5050464;28;20260;-78
2023/12/09 03:17:36;;;;;;;3.80;0.60;;;9.50;99.90;;;;;;5046797;28;20217;-78
2023/12/09 03:20:02;;;;;;;3.33;0.70;;;9.60;99.90;;;;;;5030829;28;20652;-78
2023/12/09 03:22:29;;;;;;;1.80;0.40;;;9.50;99.90;;;;;;5047364;28;20193;-77
2023/12/09 03:24:55;;;;;;;6.37;0.80;;;9.50;99.90;;;;;;5050904;28;20652;-79
2023/12/09 03:27:21;;;;;;;2.47;0.43;;;9.60;99.90;;;;;;5039601;28;20190;-78
2023/12/09 03:29:46;;;;;;;2.87;0.60;;;9.70;99.90;;;;;;5032191;28;20195;-78
2023/12/09 03:32:12;;;;;;;3.77;0.70;;;9.60;99.90;;;;;;5048565;28;20196;-78
2023/12/09 03:34:38;;;;;;;2.40;0.40;;;9.70;99.90;;;;;;5037467;28;20333;-79
2023/12/09 03:37:03;;;;;;;2.63;0.60;;;9.60;99.90;;;;;;5054823;28;20185;-77
2023/12/09 03:39:29;;;;;;;3.93;0.50;;;9.50;99.90;;;;;;5037740;28;20189;-77
2023/12/09 03:41:55;;;;;;;3.53;0.73;;;9.60;99.90;;;;;;5051334;28;20220;-78
2023/12/09 03:44:21;;;;;;;1.13;0.30;;;9.70;99.90;;;;;;5047667;28;20224;-79
2023/12/09 03:46:46;;;;;;;2.07;0.40;;;9.70;99.90;;;;;;5030608;28;20267;-78
2023/12/09 03:49:12;;;;;;;1.53;0.43;;;9.80;99.90;;;;;;5049657;28;20185;-78
2023/12/09 03:51:38;;;;;;;2.57;0.50;;;9.60;99.90;;;;;;5047357;28;20193;-78
2023/12/09 03:54:04;;;;;;;1.63;0.40;;;9.60;99.90;;;;;;5047519;28;20185;-78
2023/12/09 03:56:29;;;;;;;1.87;0.40;;;9.60;99.90;;;;;;5046630;28;20185;-77
2023/12/09 03:58:55;;;;;;;1.60;0.43;;;;;;;;;;5050858;28;20208;-78
2023/12/09 04:01:24;;;;;;;1.40;0.20;;;9.50;99.90;;;;;;5028042;28;20187;-77
2023/12/09 04:03:51;;;;;;;2.83;0.50;;;9.70;99.90;;;;;;5033428;28;20213;-78
2023/12/09 04:06:17;;;;;;;1.43;0.37;;;9.80;99.90;;;;;;5046000;28;20200;-77
2023/12/09 04:08:43;;;;;;;0.87;0.20;;;9.60;99.90;;;;;;5047707;28;20177;-77
2023/12/09 04:11:09;;;;;;;1.60;0.30;;;9.40;99.90;;;;;;5048119;28;20285;-78
2023/12/09 04:13:34;;;;;;;0.97;0.20;;;9.70;99.90;;;;;;5046295;28;20173;-76
2023/12/09 04:16:00;;;;;;;0.97;0.20;;;9.70;99.90;;;;;;5049219;28;20181;-75
2023/12/09 04:18:26;;;;;;;0.47;0.20;;;9.60;99.90;;;;;;5047240;28;20208;-77
2023/12/09 04:20:52;;;;;;;0.57;0.10;;;9.60;99.90;;;;;;5046715;28;20191;-77
2023/12/09 04:23:18;;;;;;;0.60;0.10;;;9.70;99.90;;;;;;5046667;28;20629;-77
2023/12/09 04:25:44;;;;;;;2.90;0.40;;;9.80;99.90;;;;;;5050268;28;20267;-77
2023/12/09 04:28:11;;;;;;;0.87;0.30;;;9.70;99.90;;;;;;5046063;28;20252;-76
2023/12/09 04:30:37;;;;;;;0.97;0.20;;;9.60;99.90;;;;;;5042587;28;20271;-78
2023/12/09 04:33:03;;;;;;;1.17;0.20;;;9.70;99.90;;;;;;5047596;28;20680;-78
2023/12/09 04:35:29;;;;;;;2.10;0.20;;;9.80;99.90;;;;;;5049730;28;20644;-78
2023/12/09 04:37:55;;;;;;;1.13;0.20;;;9.70;99.90;;;;;;5048119;28;20210;-78
2023/12/09 04:40:21;;;;;;;0.50;0.10;;;9.60;99.90;;;;;;5046892;28;20192;-78
2023/12/09 04:42:47;;;;;;;0.23;0.00;;;9.90;99.90;;;;;;5030382;28;20232;-78
2023/12/09 04:45:13;;;;;;;0.47;0.10;;;9.60;99.90;;;;;;5046392;28;20315;-76
2023/12/09 04:47:39;;;;;;;0.00;0.00;;;9.70;99.90;;;;;;5045471;28;20260;-76
2023/12/09 04:50:08;;;;;;;0.13;0.03;;;9.90;99.90;;;;;;5045813;28;20188;-77
2023/12/09 04:52:35;;;;;;;0.10;0.00;;;9.80;99.90;;;;;;5046572;28;20184;-78
2023/12/09 04:55:01;;;;;;;0.27;0.10;;;9.80;99.90;;;;;;5047986;28;20183;-77
2023/12/09 04:57:27;;;;;;;0.37;0.00;;;10.00;99.90;;;;;;5049291;28;20663;-77
2023/12/09 04:59:53;;;;;;;1.23;0.10;;;10.00;99.90;;;;;;5044915;28;20188;-77
2023/12/09 05:02:20;;;;;;;0.10;0.00;;;10.00;99.90;;;;;;5032365;28;20177;-78
2023/12/09 05:04:46;;;;;;;0.00;0.00;;;10.10;99.90;;;;;;5045068;28;20185;-78
2023/12/09 05:07:12;;;;;;;0.30;0.00;;;10.20;99.90;;;;;;5048978;28;20192;-78
2023/12/09 05:09:38;;;;;;;0.30;0.10;;;10.00;99.90;;;;;;5045034;28;20185;-76
2023/12/09 05:12:04;;;;;;;0.30;0.10;;;9.90;99.90;;;;;;5046610;28;20611;-78
2023/12/09 05:14:29;;;;;;;0.20;0.00;;;10.20;99.90;;;;;;5048346;28;20189;-80
2023/12/09 05:16:55;;;;;;;0.10;0.00;;;10.30;99.90;;;;;;5045495;28;20184;-77
2023/12/09 05:19:20;;;;;;;0.60;0.10;;;10.30;99.90;;;;;;5045851;28;20216;-78
2023/12/09 05:21:46;;;;;;;0.07;0.00;;;10.20;99.90;;;;;;5048739;28;20216;-80
2023/12/09 05:24:12;;;;;;;0.27;0.07;;;10.00;99.90;;;;;;5043019;28;20609;-81
2023/12/09 05:26:37;;;;;;;0.00;0.00;;;10.30;99.90;;;;;;5044847;28;20173;-80
2023/12/09 05:29:04;;;;;;;0.77;0.20;;;10.20;99.90;;;;;;5046025;28;20587;-81
2023/12/09 05:31:29;;;;;;;0.20;0.00;;;10.20;99.90;;;;;;5041050;28;20188;-78
2023/12/09 05:33:55;;;;;;;0.10;0.00;;;10.10;99.90;;;;;;5049762;28;20181;-78
2023/12/09 05:36:21;;;;;;;0.33;0.00;;;;;;;;;;5051084;28;20205;-77
2023/12/09 05:38:47;;;;;;;1.47;0.00;;;10.10;99.90;;;;;;5047776;28;20213;-77
2023/12/09 05:41:12;;;;;;;3.33;0.30;;;10.30;99.90;;;;;;5044706;28;20648;-77
2023/12/09 05:43:39;;;;;;;0.30;0.00;;;10.30;99.90;;;;;;5045760;28;20837;-76
2023/12/09 05:46:05;;;;;;;0.03;0.00;;;10.50;99.90;;;;;;5048940;28;20196;-77
2023/12/09 05:48:34;;;;;;;0.93;0.00;;;10.50;99.90;;;;;;5045216;28;20655;-78
2023/12/09 05:51:00;;;;;;;0.20;0.00;;;10.40;99.90;;;;;;5046314;28;20173;-77
2023/12/09 05:53:26;;;;;;;0.00;0.00;;;10.40;99.90;;;;;;5047444;28;20675;-78
2023/12/09 05:55:52;;;;;;;0.00;0.00;;;;;;;;;;5046045;28;20191;-79
2023/12/09 05:58:18;;;;;;;0.00;0.00;;;;;;;;;;5027229;28;20225;-79
2023/12/09 06:00:44;;;;;;;0.03;0.00;;;10.60;99.90;;;;;;5047561;28;20307;-78
2023/12/09 06:03:10;;;;;;;0.00;0.00;;;10.50;99.90;;;;;;5050301;28;20435;-78
2023/12/09 06:05:36;;;;;;;0.30;0.10;;;10.60;99.90;;;;;;5051346;28;20174;-79
2023/12/09 06:08:02;;;;;;;0.57;0.00;;;10.60;99.90;;;;;;5048344;28;20213;-79
2023/12/09 06:10:27;;;;;;;0.67;0.10;;;10.80;99.90;;;;;;5050110;28;20177;-78
2023/12/09 06:12:53;;;;;;;0.97;0.03;;;10.60;99.90;;;;;;5052093;28;20665;-79
2023/12/09 06:15:19;;;;;;;0.00;0.00;;;10.70;99.90;;;;;;5049099;28;20173;-78
2023/12/09 06:17:44;;;;;;;0.10;0.00;;;11.70;99.90;;;;;;5049830;28;20297;-77
2023/12/09 06:20:10;;;;;;;0.00;0.00;;;10.60;99.90;;;;;;5051121;28;20201;-76
2023/12/09 06:22:36;;;;;;;0.03;0.00;;;10.70;99.90;;;;;;5052915;28;20628;-76
2023/12/09 06:25:02;;;;;;;0.40;0.00;;;10.70;99.90;;;;;;5039750;28;20185;-77
2023/12/09 06:27:28;;;;;;;0.00;0.00;;;11.10;99.90;;;;;;5052342;28;20177;-78
2023/12/09 06:29:54;;;;;;;0.20;0.00;;;10.80;99.90;;;;;;5052235;28;20186;-78
2023/12/09 06:32:20;;;;;;;0.20;0.00;;;;;;;;;;5049659;28;20636;-77
2023/12/09 06:34:45;;;;;;;0.33;0.10;;;10.70;99.90;;;;;;5037737;28;20186;-77
2023/12/09 06:37:11;;;;;;;0.10;0.00;;;10.80;99.90;;;;;;5057666;28;20173;-77
2023/12/09 06:39:37;;;;;;;0.50;0.00;;;10.90;99.90;;;;;;5049373;28;20184;-77
2023/12/09 06:42:03;;;;;;;0.10;0.00;;;10.90;99.90;;;;;;5049942;28;20272;-77
2023/12/09 06:44:29;;;;;;;0.20;0.00;;;10.80;99.90;;;;;;5053261;28;20189;-77
2023/12/09 06:46:55;;;;;;;0.20;0.00;;;11.00;99.90;;;;;;5052793;28;20529;-79
2023/12/09 06:49:20;;;;;;;0.00;0.00;;;10.70;99.90;;;;;;5052666;28;20353;-78
2023/12/09 06:51:48;;;;;;;0.20;0.10;;;10.90;99.90;;;;;;5048129;28;20288;-78
2023/12/09 06:54:14;;;;;;;0.30;0.00;;;11.20;99.90;;;;;;5044584;28;20248;-78
2023/12/09 06:56:39;;;;;;;0.20;0.00;;;11.20;99.90;;;;;;5050923;28;20217;-76
2023/12/09 06:59:05;;;;;;;0.00;0.00;;;11.00;99.90;;;;;;5049154;28;20619;-77
2023/12/09 07:01:31;;;;;;;0.00;0.00;;;11.10;99.90;;;;;;5049410;28;20239;-77
2023/12/09 07:03:57;;;;;;;0.10;0.00;;;11.20;99.90;;;;;;5049821;28;20173;-76
2023/12/09 07:06:24;;;;;;;0.20;0.00;;;11.20;99.90;;;;;;5047112;28;20577;-77
2023/12/09 07:08:51;;;;;;;0.73;0.00;;;11.20;99.90;;;;;;5048521;28;20208;-77
2023/12/09 07:11:20;;;;;;;0.00;0.00;;;11.20;99.90;;;;;;5047591;28;20188;-77
2023/12/09 07:13:46;;;;;;;0.93;0.03;;;11.20;99.90;;;;;;5030385;28;20190;-77
2023/12/09 07:16:13;;;;;;;0.00;0.00;;;;;;;;;;5050561;28;20181;-77
2023/12/09 07:18:43;;;;;;;0.10;0.00;;;11.20;99.90;;;;;;5043839;28;20224;-77
2023/12/09 07:21:09;;;;;;;0.20;0.00;;;11.20;99.90;;;;;;5051105;28;20184;-76
2023/12/09 07:23:35;;;;;;;1.03;0.10;;;11.30;99.90;;;;;;5028267;28;20192;-79
2023/12/09 07:26:01;;;;;;;0.40;0.00;;;11.30;99.90;;;;;;5047194;28;20182;-77
2023/12/09 07:28:29;;;;;;;0.27;0.00;;;10.90;99.90;;;;;;5046442;28;20261;-78
2023/12/09 07:30:55;;;;;;;0.03;0.00;;;11.20;99.90;;;;;;5050188;28;20180;-77
2023/12/09 07:33:20;;;;;;;0.63;0.10;;;11.40;99.90;;;;;;5045365;28;20170;-75
2023/12/09 07:35:46;;;;;;;1.80;0.00;;;11.20;99.90;;;;;;5050376;28;20189;-75
2023/12/09 07:38:12;;;;;;;0.50;0.00;;;11.40;99.90;;;;;;5049818;28;20213;-75
2023/12/09 07:40:37;;;;;;;0.50;0.07;;;11.30;99.90;;;;;;5049568;28;20219;-76
2023/12/09 07:43:04;;;;;;;0.17;0.00;;;11.30;99.90;;;;;;5049075;28;20228;-76
2023/12/09 07:45:30;;;;;;;0.30;0.10;;;11.20;99.90;;;;;;5047171;28;20181;-75
2023/12/09 07:47:55;;;;;;;0.03;0.00;;;11.60;99.90;;;;;;5047939;28;20195;-76
2023/12/09 07:50:21;;;;;;;0.40;0.00;;;11.80;99.90;;;;;;5046374;28;20177;-76
2023/12/09 07:52:47;;;;;;;0.00;0.00;;;11.90;99.90;;;;;;5038245;28;20611;-75
2023/12/09 07:55:13;;;;;;;0.10;0.00;;;;;;;;;;5045160;28;20177;-76
2023/12/09 07:57:38;;;;;;;0.23;0.00;;;11.80;99.90;;;;;;5047944;28;20208;-76
2023/12/09 08:00:05;;;;;;;0.00;0.00;;;11.50;99.90;;;;;;5048206;28;20185;-76
2023/12/09 08:02:31;;;;;;;0.00;0.00;;;11.80;99.90;;;;;;5057979;28;20211;-75
2023/12/09 08:04:56;;;;;;;0.10;0.00;;;12.00;99.90;;;;;;5062668;28;20656;-76
2023/12/09 08:07:22;;;;;;;0.00;0.00;;;12.10;99.90;;;;;;5050892;28;20184;-76
2023/12/09 08:09:48;;;;;;;0.20;0.00;;;12.10;99.90;;;;;;5048113;28;20197;-75
2023/12/09 08:12:13;;;;;;;0.20;0.00;;;12.10;99.90;;;;;;5049263;28;20659;-76
2023/12/09 08:14:39;;;;;;;0.00;0.00;;;12.10;99.90;;;;;;5048845;28;20583;-77
2023/12/09 08:17:05;;;;;;;0.00;0.00;;;12.10;99.90;;;;;;5046479;28;20182;-76
2023/12/09 08:19:30;;;;;;;0.00;0.00;;;12.40;99.90;;;;;;5047736;28;20212;-76
2023/12/09 08:21:56;;;;;;;0.27;0.00;;;12.20;99.90;;;;;;5048005;28;20236;-78
2023/12/09 08:24:22;;;;;;;0.00;0.00;;;12.20;99.90;;;;;;5046830;28;20524;-78
2023/12/09 08:26:48;;;;;;;0.00;0.00;;;;;;;;;;5047815;28;20275;-76
2023/12/09 08:29:14;;;;;;;0.43;0.03;;;12.50;99.90;;;;;;5048777;28;20456;-77
2023/12/09 08:31:49;;;;;;;0.13;0.10;;;12.30;99.90;;;;;;5045556;28;20189;-77
2023/12/09 08:34:15;;;;;;;0.00;0.00;;;12.40;99.90;;;;;;5046667;28;20584;-77
2023/12/09 08:36:41;;;;;;;0.63;0.00;;;12.30;99.90;;;;;;5048796;28;20212;-78
2023/12/09 08:39:08;;;;;;;0.30;0.00;;;12.50;99.90;;;;;;5044379;28;20299;-77
2023/12/09 08:41:33;;;;;;;0.03;0.00;;;12.60;99.90;;;;;;5049183;28;20272;-78
2023/12/09 08:43:59;;;;;;;0.30;0.00;;;12.50;99.90;;;;;;5045816;28;20315;-77
2023/12/09 08:46:25;;;;;;;0.73;0.00;;;12.50;99.90;;;;;;5046859;28;20169;-78
2023/12/09 08:48:50;;;;;;;0.20;0.00;;;12.50;99.90;;;;;;5045294;28;20253;-79
2023/12/09 08:51:16;;;;;;;0.00;0.00;;;12.30;99.90;;;;;;5049816;28;20263;-77
2023/12/09 08:53:42;;;;;;;0.00;0.00;;;12.60;99.90;;;;;;5047874;28;20211;-75
2023/12/09 08:56:08;;;;;;;0.03;0.00;;;12.60;99.90;;;;;;5049257;28;20640;-76
2023/12/09 08:58:34;;;;;;;0.47;0.00;;;12.20;99.90;;;;;;5036505;28;20268;-75
2023/12/09 09:01:00;;;;;;;0.13;0.00;;;12.60;99.90;;;;;;5048672;28;20183;-75
2023/12/09 09:03:25;;;;;;;0.20;0.00;;;12.70;99.90;;;;;;5047939;28;20185;-76
2023/12/09 09:05:51;;;;;;;0.00;0.00;;;12.70;99.90;;;;;;5045706;28;20187;-75
2023/12/09 09:08:18;;;;;;;0.10;0.00;;;12.50;99.90;;;;;;5047912;28;20165;-76
2023/12/09 09:10:44;;;;;;;0.67;0.10;;;12.70;99.90;;;;;;5045742;28;20632;-75
2023/12/09 09:13:10;;;;;;;0.83;0.30;;;12.70;99.90;;;;;;5045572;28;20211;-75
2023/12/09 09:15:35;;;;;;;0.40;0.10;;;12.70;99.90;;;;;;5048271;28;20197;-75
2023/12/09 09:18:02;;;;;;;0.60;0.10;;;;;;;;;;5014905;28;20229;-74
2023/12/09 09:20:27;;;;;;;2.47;0.30;;;12.00;99.90;;;;;;5044821;28;20636;-74
2023/12/09 09:22:53;;;;;;;0.83;0.23;;;12.70;99.90;;;;;;5041290;28;20259;-75
2023/12/09 09:25:19;;;;;;;1.57;0.10;;;12.80;99.90;;;;;;5044147;28;20260;-76
2023/12/09 09:27:45;;;;;;;2.50;0.30;;;12.90;99.90;;;;;;5049162;28;20180;-74
2023/12/09 09:30:11;;;;;;;2.50;0.53;;;12.80;99.90;;;;;;5047069;28;20198;-75
2023/12/09 09:32:37;;;;;;;4.33;0.40;;;12.70;99.90;;;;;;5050074;28;20180;-75
2023/12/09 09:35:03;;;;;;;5.30;0.60;;;12.80;99.90;;;;;;5048139;28;20533;-75
2023/12/09 09:37:29;;;;;;;3.80;0.97;;;12.80;99.90;;;;;;5050413;28;20539;-77
2023/12/09 09:39:55;;;;;;;3.40;0.60;;;;;;;;;;5049247;28;20189;-76
2023/12/09 09:42:32;;;;;;;4.80;0.73;;;13.00;99.90;;;;;;5044635;28;20229;-80
2023/12/09 09:45:00;;;;;;;3.20;0.70;;;13.00;99.90;;;;;;5040870;28;20185;-79
2023/12/09 09:47:28;;;;;;;4.33;0.80;;;12.80;99.90;;;;;;5045434;28;20185;-84
2023/12/09 09:49:55;;;;;;;5.30;0.93;;;12.70;99.90;;;;;;5048774;28;20184;-81
2023/12/09 09:52:22;;;;;;;4.10;0.87;;;12.50;99.90;;;;;;5045021;28;20185;-80
2023/12/09 09:54:48;;;;;;;4.73;0.70;;;12.90;99.90;;;;;;5045430;28;20266;-76
2023/12/09 09:57:15;;;;;;;4.53;1.10;;;12.80;99.90;;;;;;5044402;28;20178;-78
2023/12/09 09:59:41;;;;;;;4.80;1.07;;;13.00;99.90;;;;;;5048964;28;20211;-77
2023/12/09 10:02:07;;;;;;;5.13;1.23;;;12.70;99.90;;;;;;5047528;28;20652;-78
2023/12/09 10:04:33;;;;;;;1.90;0.43;;;12.90;99.90;;;;;;5045961;28;20207;-76
2023/12/09 10:06:59;;;;;;;7.03;1.40;;;12.70;99.90;;;;;;5046140;28;20189;-78
2023/12/09 10:09:26;;;;;;;5.97;1.27;;;11.50;99.90;;;;;;5047196;28;20517;-76
2023/12/09 10:11:51;;;;;;;6.50;1.30;;;12.50;99.90;;;;;;5046767;28;20178;-79
2023/12/09 10:14:18;;;;;;;4.53;1.00;;;13.00;99.90;;;;;;5045848;28;20227;-79
2023/12/09 10:16:45;;;;;;;4.50;0.73;;;12.90;99.90;;;;;;5044048;28;20195;-77
2023/12/09 10:19:14;;;;;;;7.10;1.80;;;12.70;99.90;;;;;;5024370;28;20241;-79
2023/12/09 10:21:40;;;;;;;9.43;1.93;;;;;;;;;;5022350;28;20186;-81
2023/12/09 10:24:06;;;;;;;8.90;2.10;;;13.10;99.90;;;;;;5044419;28;20185;-80
2023/12/09 10:26:32;;;;;;;12.57;1.83;;;13.30;99.90;;;;;;5046966;28;20167;-83
2023/12/09 10:28:57;;;;;;;8.43;2.00;;;13.00;99.90;;;;;;5050294;28;20569;-83
2023/12/09 10:31:23;;;;;;;10.27;2.43;;;;;;;;;;5038137;28;20192;-81
2023/12/09 10:33:50;;;;;;;7.87;2.10;;;13.60;99.90;;;;;;5068416;28;20173;-81
2023/12/09 10:36:17;;;;;;;11.37;2.30;;;13.00;99.90;;;;;;5052113;28;20332;-83
2023/12/09 10:38:42;;;;;;;12.60;2.43;;;13.20;99.90;;;;;;5030269;28;20289;-82
2023/12/09 10:41:11;;;;;;;10.17;1.73;;;13.20;99.90;;;;;;5029000;28;20272;-80
2023/12/09 10:43:38;;;;;;;16.40;2.80;;;12.80;99.90;;;;;;5046228;28;20232;-79
2023/12/09 10:46:04;;;;;;;9.03;1.80;;;12.90;99.90;;;;;;5048425;28;20181;-77
2023/12/09 10:48:30;;;;;;;7.73;1.37;;;12.80;99.90;;;;;;5050057;28;20185;-80
2023/12/09 10:50:56;;;;;;;7.53;1.70;;;13.00;99.90;;;;;;5048343;28;20186;-79
2023/12/09 10:53:22;;;;;;;9.97;1.97;;;13.60;99.90;;;;;;5048978;28;20184;-78
2023/12/09 10:55:47;;;;;;;12.10;2.07;;;13.80;99.90;;;;;;5045633;28;20174;-80
2023/12/09 10:58:15;;;;;;;11.20;2.07;;;;;;;;;;5052288;28;20220;-80
2023/12/09 11:00:41;;;;;;;7.72;1.95;;;14.50;99.90;;;;;;5036110;28;20668;-78
2023/12/09 11:03:08;;;;;;;14.00;2.45;;;15.10;99.90;;;;;;5043105;28;20181;-80
2023/12/09 11:08:11;;;;;;;20.37;2.97;;;13.60;99.90;;;;;;5218703;22;20237;-77
2023/12/09 11:10:37;;;;;;;23.70;3.30;;;12.90;99.90;;;;;;5014764;28;20177;-79
2023/12/09 11:13:03;;;;;;;13.67;1.90;;;12.90;99.90;;;;;;5017517;28;20174;-77
2023/12/09 11:15:31;;;;;;;10.47;2.20;;;12.90;99.90;;;;;;5019236;28;20237;-78
2023/12/09 11:18:17;;;;;;;12.67;2.50;;;13.10;99.90;;;;;;5017551;28;20297;-76
2023/12/09 11:20:45;;;;;;;12.17;2.67;;;;;;;;;;5025410;28;20166;-73
2023/12/09 11:23:12;;;;;;;17.37;2.90;;;12.70;99.90;;;;;;5027591;28;20190;-77
2023/12/09 11:25:42;;;;;;;19.13;3.23;;;12.80;99.90;;;;;;5070274;22;20325;-82
2023/12/09 11:28:13;;;;;;;9.63;2.27;;;14.30;99.90;;;;;;5013772;28;20186;-75
2023/12/09 11:30:41;;;;;;;16.33;3.20;;;15.50;99.90;;;;;;5015170;28;20229;-74
2023/12/09 11:33:07;;;;;;;22.13;4.00;;;15.70;99.90;;;;;;5013158;28;20210;-76
2023/12/09 11:35:34;;;;;;;17.38;3.42;;;;;;;;;;5012212;28;20255;-76
2023/12/09 11:38:02;;;;;;;19.25;3.10;;;15.70;99.90;;;;;;5013016;28;20210;-76
2023/12/09 11:40:29;;;;;;;25.95;3.75;;;14.80;99.90;;;;;;5012707;28;20189;-76
2023/12/09 11:42:57;;;;;;;37.80;5.20;;;14.10;99.90;;;;;;5211709;22;20240;-78
2023/12/09 11:45:24;;;;;;;32.97;4.13;;;13.40;99.90;;;;;;5039109;28;20170;-76
2023/12/09 11:47:50;;;;;;;24.48;4.28;;;12.80;99.90;;;;;;5039827;28;20637;-78
2023/12/09 11:50:17;;;;;;;39.40;4.60;;;12.60;99.90;;;;;;5030940;28;20182;-80
2023/12/09 11:52:44;;;;;;;32.17;5.10;;;12.70;99.90;;;;;;5030129;28;20173;-79
2023/12/09 11:55:10;;;;;;;25.87;4.47;;;12.60;99.90;;;;;;5034693;28;20284;-77
2023/12/09 11:57:38;;;;;;;32.07;5.07;;;12.80;99.90;;;;;;5048001;28;20182;-78
2023/12/09 12:00:06;;;;;;;32.80;4.33;;;12.70;99.90;;;;;;5036529;28;20201;-82
2023/12/09 12:02:33;;;;;;;30.43;4.27;;;12.50;99.90;;;;;;5036217;28;20165;-80
2023/12/09 12:04:59;;;;;;;22.93;3.87;;;;;;;;;;5078536;22;20238;-80
2023/12/09 12:07:25;;;;;;;26.50;4.33;;;12.70;99.90;;;;;;4994259;28;20266;-79
2023/12/09 12:09:50;;;;;;;21.73;3.93;;;13.80;99.90;;;;;;4990799;28;20219;-81
2023/12/09 12:12:17;;;;;;;29.60;5.40;;;13.90;99.90;;;;;;4995788;28;20192;-78
2023/12/09 12:14:46;;;;;;;31.13;5.37;;;14.30;99.90;;;;;;4996893;28;20534;-76
2023/12/09 12:17:12;;;;;;;29.03;4.50;;;15.60;99.90;;;;;;5066969;22;1219504;-77
2023/12/09 12:22:13;;;;;;;25.50;3.80;;;15.00;99.90;;;;;;5067803;22;20242;-74
2023/12/09 12:24:45;;;;;;;22.75;4.43;;;14.70;99.90;;;;;;5038986;28;20166;-76
2023/12/09 12:27:11;;;;;;;29.43;4.43;;;13.50;99.90;;;;;;5224033;22;20249;-76
2023/12/09 12:29:41;;;;;;;31.77;4.43;;;13.40;99.90;;;;;;5026360;28;20187;-74
2023/12/09 12:32:07;;;;;;;23.97;4.33;;;13.90;99.90;;;;;;5039136;28;20638;-76
2023/12/09 12:37:10;;;;;;;29.88;4.63;;;18.50;99.90;;;;;;5062959;22;20253;-78
2023/12/09 12:39:36;;;;;;;22.52;3.63;;;;;;;;;;5125421;23;20241;-78
2023/12/09 12:42:02;;;;;;;31.10;4.13;;;19.00;99.90;;;;;;5123162;22;20194;-76
2023/12/09 12:44:28;;;;;;;32.05;5.03;;;18.80;99.90;;;;;;5029902;28;20182;-78
2023/12/09 12:46:53;;;;;;;32.38;4.88;;;17.10;99.90;;;;;;5028938;28;20178;-77
2023/12/09 12:49:19;;;;;;;25.35;4.70;;;16.30;99.90;;;;;;5035580;28;20185;-77
2023/12/09 12:51:45;;;;;;;33.78;4.60;;;13.80;99.90;;;;;;5029447;28;20180;-76
2023/12/09 12:54:10;;;;;;;37.28;5.55;;;13.70;99.90;;;;;;5026720;28;20190;-78
2023/12/09 12:56:36;;;;;;;29.83;5.00;;;13.40;99.90;;;;;;5024157;28;20180;-75
2023/12/09 12:59:02;;;;;;;25.98;4.40;;;13.30;99.90;;;;;;5030219;28;20236;-88